Time;durP1;ratioP1;P1;durP2;ratioP2;P2;SDS_P1;SDS_P2;PMS_P1;PMS_P2;Temp;Humidity;BMP_temperature;BMP_pressure;BME280_temperature;BME280_humidity;BME280_pressure;Samples;Min_cycle;Max_cycle;Signal;HPM_P1;HPM_P2
2022/05/30 00:01:15;;;;;;;10.32;2.63;;;7.60;99.90;;;;;;4968505;28;20125;-70
2022/05/30 00:03:41;;;;;;;7.45;1.67;;;7.70;99.90;;;;;;4967537;28;20523;-70
2022/05/30 00:06:09;;;;;;;7.25;2.15;;;7.70;99.90;;;;;;4981738;28;20039;-69
2022/05/30 00:08:35;;;;;;;8.43;1.70;;;7.70;99.90;;;;;;4969566;28;20043;-69
2022/05/30 00:11:03;;;;;;;8.00;1.83;;;7.70;99.90;;;;;;4985155;28;20046;-70
2022/05/30 00:13:29;;;;;;;7.32;1.42;;;7.60;99.90;;;;;;4981666;28;20043;-69
2022/05/30 00:15:55;;;;;;;6.13;2.08;;;7.60;99.90;;;;;;4968085;28;20121;-69
2022/05/30 00:18:20;;;;;;;4.82;1.45;;;7.60;99.90;;;;;;4968130;28;20138;-69
2022/05/30 00:20:47;;;;;;;8.43;1.58;;;7.50;99.90;;;;;;4969129;28;20047;-69
2022/05/30 00:23:13;;;;;;;6.15;1.40;;;7.50;99.90;;;;;;4961329;28;20058;-69
2022/05/30 00:25:43;;;;;;;5.85;1.25;;;7.40;99.90;;;;;;4965384;28;20050;-69
2022/05/30 00:28:09;;;;;;;6.25;1.52;;;7.40;99.90;;;;;;4968536;28;20051;-69
2022/05/30 00:30:35;;;;;;;4.80;1.25;;;7.30;99.90;;;;;;4946014;28;20097;-69
2022/05/30 00:33:00;;;;;;;3.38;1.20;;;7.30;99.90;;;;;;4965553;28;20061;-69
2022/05/30 00:35:26;;;;;;;7.20;1.33;;;7.20;99.90;;;;;;4967704;28;20078;-69
2022/05/30 00:37:52;;;;;;;5.95;1.45;;;7.20;99.90;;;;;;4965907;28;20140;-69
2022/05/30 00:40:18;;;;;;;5.43;1.20;;;7.20;99.90;;;;;;4967651;28;20074;-70
2022/05/30 00:42:44;;;;;;;4.82;1.27;;;7.10;99.90;;;;;;4967109;28;20608;-70
2022/05/30 00:45:10;;;;;;;5.47;1.30;;;7.10;99.90;;;;;;4968315;28;20451;-70
2022/05/30 00:47:37;;;;;;;4.68;1.00;;;7.10;99.90;;;;;;4963939;28;20107;-69
2022/05/30 00:50:03;;;;;;;7.10;1.23;;;7.10;99.90;;;;;;4966326;28;20129;-70
2022/05/30 00:52:36;;;;;;;4.60;1.10;;;7.20;99.90;;;;;;4968512;28;20444;-70
2022/05/30 00:55:20;;;;;;;8.48;1.42;;;7.20;99.90;;;;;;4968948;28;20073;-70
2022/05/30 00:57:47;;;;;;;6.55;1.50;;;7.20;99.90;;;;;;4965649;28;20129;-70
2022/05/30 01:00:18;;;;;;;5.82;1.05;;;7.30;99.90;;;;;;4965044;28;20035;-70
2022/05/30 01:02:45;;;;;;;6.40;1.50;;;7.30;99.90;;;;;;4968034;28;20041;-70
2022/05/30 01:08:02;;;;;;;5.30;1.10;;;7.30;99.90;;;;;;4966534;28;20047;-70
2022/05/30 01:10:30;;;;;;;4.63;1.05;;;7.40;99.90;;;;;;4965323;28;20049;-70
2022/05/30 01:12:58;;;;;;;3.72;1.05;;;7.40;99.90;;;;;;4964575;28;20066;-70
2022/05/30 01:15:30;;;;;;;6.07;1.30;;;7.40;99.90;;;;;;4965396;28;20137;-70
2022/05/30 01:18:04;;;;;;;5.35;1.15;;;7.40;99.90;;;;;;4981089;28;20067;-70
2022/05/30 01:21:30;;;;;;;4.40;1.20;;;7.40;99.90;;;;;;4966704;28;20046;-70
2022/05/30 01:24:32;;;;;;;5.32;1.10;;;7.40;99.90;;;;;;4961771;28;20109;-70
2022/05/30 01:27:51;;;;;;;5.95;1.42;;;7.50;99.90;;;;;;4962822;28;20055;-70
2022/05/30 01:30:18;;;;;;;4.35;0.98;;;7.50;99.90;;;;;;4905822;29;20064;-71
2022/05/30 01:32:44;;;;;;;6.30;1.20;;;7.50;99.90;;;;;;4973853;28;20046;-70
2022/05/30 01:35:10;;;;;;;5.03;1.05;;;7.60;99.90;;;;;;4966598;28;20078;-70
2022/05/30 01:37:37;;;;;;;5.80;1.10;;;7.60;99.90;;;;;;4966423;28;20414;-71
2022/05/30 01:40:03;;;;;;;6.20;1.20;;;7.60;99.90;;;;;;4967241;28;20520;-71
2022/05/30 01:42:29;;;;;;;3.00;1.23;;;7.60;99.90;;;;;;4967570;28;20045;-70
2022/05/30 01:44:55;;;;;;;4.40;1.02;;;7.60;99.90;;;;;;4982615;28;20035;-70
2022/05/30 01:47:20;;;;;;;5.95;1.20;;;7.60;99.90;;;;;;4963728;28;20116;-70
2022/05/30 01:49:46;;;;;;;6.30;1.25;;;7.60;99.90;;;;;;4968271;28;20054;-71
2022/05/30 01:52:12;;;;;;;6.38;1.25;;;7.60;99.90;;;;;;4968640;28;20133;-71
2022/05/30 01:54:38;;;;;;;5.47;1.13;;;7.60;99.90;;;;;;4967410;28;20042;-70
2022/05/30 01:57:04;;;;;;;5.00;0.90;;;7.60;99.90;;;;;;4980315;28;20411;-71
2022/05/30 01:59:30;;;;;;;4.45;1.08;;;7.50;99.90;;;;;;4966411;28;20062;-70
2022/05/30 02:01:55;;;;;;;6.88;1.10;;;7.50;99.90;;;;;;4963021;28;20055;-71
2022/05/30 02:04:21;;;;;;;4.55;1.80;;;7.50;99.90;;;;;;4964380;28;20489;-70
2022/05/30 02:06:46;;;;;;;5.40;1.20;;;7.50;99.90;;;;;;4950060;28;20500;-70
2022/05/30 02:09:12;;;;;;;2.95;0.90;;;7.40;99.90;;;;;;4948862;28;20122;-71
2022/05/30 02:11:38;;;;;;;3.72;1.02;;;7.30;99.90;;;;;;4966558;28;20073;-71
2022/05/30 02:14:04;;;;;;;5.57;1.23;;;7.20;99.90;;;;;;4957577;28;20051;-71
2022/05/30 02:19:17;;;;;;;4.63;1.23;;;7.20;99.90;;;;;;4967291;28;20542;-70
2022/05/30 02:21:43;;;;;;;4.43;1.13;;;7.10;99.90;;;;;;4967156;28;20547;-70
2022/05/30 02:24:08;;;;;;;6.60;1.20;;;7.10;99.90;;;;;;4964988;28;20039;-71
2022/05/30 02:26:36;;;;;;;6.50;1.30;;;7.10;99.90;;;;;;4980441;28;20118;-71
2022/05/30 02:29:03;;;;;;;4.03;1.27;;;7.00;99.90;;;;;;4967350;28;20053;-70
2022/05/30 02:31:29;;;;;;;6.93;1.60;;;7.00;99.90;;;;;;4964570;28;20445;-70
2022/05/30 02:36:40;;;;;;;4.50;1.70;;;7.10;99.90;;;;;;4967976;28;20047;-71
2022/05/30 02:39:14;;;;;;;5.80;1.50;;;7.10;99.90;;;;;;4982211;28;20046;-71
2022/05/30 02:41:40;;;;;;;6.40;1.38;;;7.00;99.90;;;;;;4985665;28;20069;-71
2022/05/30 02:44:06;;;;;;;5.20;1.40;;;7.00;99.90;;;;;;4966517;28;20386;-70
2022/05/30 02:46:32;;;;;;;8.38;1.60;;;7.00;99.90;;;;;;4970728;28;20042;-70
2022/05/30 02:48:58;;;;;;;5.35;1.35;;;7.00;99.90;;;;;;4971469;28;20116;-70
2022/05/30 02:51:24;;;;;;;4.45;1.38;;;7.00;99.90;;;;;;4956195;28;20132;-70
2022/05/30 02:53:50;;;;;;;7.38;1.60;;;7.00;99.90;;;;;;4970586;28;20578;-70
2022/05/30 02:56:16;;;;;;;6.07;1.70;;;7.00;99.90;;;;;;4969248;28;20034;-70
2022/05/30 02:58:43;;;;;;;5.82;1.70;;;6.90;99.90;;;;;;4952815;28;20496;-70
2022/05/30 03:01:10;;;;;;;8.73;1.55;;;7.00;99.90;;;;;;4968778;28;20130;-70
2022/05/30 03:03:36;;;;;;;6.13;1.70;;;6.90;99.90;;;;;;4969992;28;20651;-70
2022/05/30 03:06:03;;;;;;;7.15;1.40;;;6.90;99.90;;;;;;4967413;28;20166;-70
2022/05/30 03:08:29;;;;;;;4.57;1.23;;;6.90;99.90;;;;;;4967325;28;20121;-71
2022/05/30 03:10:55;;;;;;;4.63;1.52;;;6.90;99.90;;;;;;4943894;28;20209;-70
2022/05/30 03:13:21;;;;;;;5.57;1.77;;;6.90;99.90;;;;;;4950078;28;20519;-70
2022/05/30 03:15:46;;;;;;;6.63;1.45;;;6.90;99.90;;;;;;4970768;28;20038;-71
2022/05/30 03:18:12;;;;;;;5.55;1.58;;;6.90;99.90;;;;;;4964606;28;20041;-70
2022/05/30 03:20:38;;;;;;;4.22;1.50;;;6.90;99.90;;;;;;4968008;28;20047;-69
2022/05/30 03:23:04;;;;;;;6.00;2.55;;;6.90;99.90;;;;;;4985279;28;20122;-70
2022/05/30 03:25:30;;;;;;;7.75;1.45;;;6.90;99.90;;;;;;4983657;28;20050;-70
2022/05/30 03:27:56;;;;;;;6.70;1.50;;;6.90;99.90;;;;;;4980520;28;20599;-71
2022/05/30 03:30:23;;;;;;;5.25;2.63;;;6.90;99.90;;;;;;4952613;28;20043;-71
2022/05/30 03:32:49;;;;;;;3.88;1.65;;;6.90;99.90;;;;;;4952572;28;20404;-70
2022/05/30 03:35:16;;;;;;;8.73;1.83;;;6.90;99.90;;;;;;4950890;28;20051;-71
2022/05/30 03:37:43;;;;;;;7.22;1.70;;;6.90;99.90;;;;;;4965113;28;20516;-70
2022/05/30 03:40:11;;;;;;;5.07;1.67;;;6.90;99.90;;;;;;4982898;28;20122;-70
2022/05/30 03:42:36;;;;;;;6.20;1.90;;;6.90;99.90;;;;;;4968675;28;20042;-70
2022/05/30 03:45:03;;;;;;;5.05;1.45;;;6.90;99.90;;;;;;4967323;28;20042;-70
2022/05/30 03:47:39;;;;;;;5.15;1.48;;;6.90;99.90;;;;;;4968423;28;20042;-70
2022/05/30 03:50:05;;;;;;;4.40;1.63;;;6.90;99.90;;;;;;4971028;28;20412;-70
2022/05/30 03:52:31;;;;;;;6.85;1.90;;;7.00;99.90;;;;;;4949726;28;20054;-70
2022/05/30 03:54:57;;;;;;;5.57;2.00;;;7.00;99.90;;;;;;4967891;28;20138;-70
2022/05/30 03:57:23;;;;;;;5.88;1.75;;;7.00;99.90;;;;;;4969114;28;20042;-71
2022/05/30 03:59:49;;;;;;;6.68;2.40;;;7.10;99.90;;;;;;4969408;28;20047;-71
2022/05/30 04:02:15;;;;;;;6.25;2.45;;;7.20;99.90;;;;;;4966452;28;20046;-70
2022/05/30 04:04:40;;;;;;;7.30;2.58;;;7.20;99.90;;;;;;4970374;28;20078;-70
2022/05/30 04:07:07;;;;;;;7.40;2.17;;;7.30;99.90;;;;;;4968459;28;20071;-70
2022/05/30 04:09:33;;;;;;;9.93;2.03;;;7.30;99.90;;;;;;4951271;28;20077;-70
2022/05/30 04:11:58;;;;;;;4.95;1.80;;;7.30;99.90;;;;;;4965821;28;20043;-71
2022/05/30 04:14:24;;;;;;;8.90;1.90;;;7.40;99.90;;;;;;4969213;28;20038;-70
2022/05/30 04:16:50;;;;;;;6.07;2.03;;;7.40;99.90;;;;;;4984367;28;20046;-70
2022/05/30 04:19:16;;;;;;;8.32;2.10;;;7.40;99.90;;;;;;4968939;28;20054;-71
2022/05/30 04:21:42;;;;;;;7.45;2.20;;;7.50;99.90;;;;;;4968383;28;20042;-70
2022/05/30 04:24:08;;;;;;;8.30;2.05;;;7.50;99.90;;;;;;4963855;28;20046;-70
2022/05/30 04:26:33;;;;;;;6.30;2.35;;;7.50;99.90;;;;;;4950782;28;20109;-70
2022/05/30 04:28:59;;;;;;;5.32;1.90;;;7.50;99.90;;;;;;4968848;28;20039;-70
2022/05/30 04:31:24;;;;;;;7.07;1.88;;;7.50;99.90;;;;;;4965268;28;20108;-70
2022/05/30 04:33:50;;;;;;;5.90;2.20;;;7.60;99.90;;;;;;4962446;28;20395;-72
2022/05/30 04:36:16;;;;;;;4.47;1.77;;;7.70;99.90;;;;;;4967105;28;20057;-71
2022/05/30 04:38:42;;;;;;;7.30;2.20;;;7.70;99.90;;;;;;4982094;28;20051;-71
2022/05/30 04:41:08;;;;;;;7.93;2.28;;;7.80;99.90;;;;;;4951860;28;20559;-71
2022/05/30 04:43:34;;;;;;;5.30;2.10;;;7.90;99.90;;;;;;4965489;28;20042;-71
2022/05/30 04:46:20;;;;;;;5.20;1.88;;;8.00;99.90;;;;;;4969096;28;20118;-71
2022/05/30 04:48:45;;;;;;;7.93;2.50;;;8.30;99.90;;;;;;4967887;28;20082;-71
2022/05/30 04:51:12;;;;;;;6.95;2.25;;;9.50;99.90;;;;;;4962652;28;20074;-71
2022/05/30 04:53:38;;;;;;;6.05;2.15;;;10.40;99.90;;;;;;4966058;28;20045;-71
2022/05/30 04:56:04;;;;;;;4.20;1.58;;;11.40;99.90;;;;;;4983263;28;20043;-72
2022/05/30 04:58:32;;;;;;;4.40;1.50;;;11.30;99.90;;;;;;4958189;28;20050;-70
2022/05/30 05:01:01;;;;;;;4.28;1.40;;;11.00;99.90;;;;;;4962335;28;20054;-69
2022/05/30 05:03:32;;;;;;;5.55;1.50;;;10.70;99.90;;;;;;4953090;28;20077;-71
2022/05/30 05:06:10;;;;;;;6.93;2.40;;;10.40;99.90;;;;;;4960300;28;20051;-70
2022/05/30 05:08:53;;;;;;;5.18;1.67;;;10.20;99.90;;;;;;4962253;28;20053;-70
2022/05/30 05:11:28;;;;;;;6.00;1.77;;;10.10;99.90;;;;;;4961341;28;20150;-70
2022/05/30 05:13:54;;;;;;;5.75;1.50;;;11.70;99.90;;;;;;4958968;28;20053;-70
2022/05/30 05:16:23;;;;;;;4.63;1.48;;;13.70;99.90;;;;;;4962904;28;20512;-70
2022/05/30 05:18:49;;;;;;;6.50;1.65;;;14.40;99.90;;;;;;4963174;28;20058;-70
2022/05/30 05:21:20;;;;;;;4.03;1.38;;;14.00;99.90;;;;;;4961726;28;20070;-70
2022/05/30 05:23:46;;;;;;;5.53;1.63;;;13.70;99.90;;;;;;4963868;28;20046;-70
2022/05/30 05:26:17;;;;;;;6.55;1.60;;;13.30;99.90;;;;;;4960612;28;20130;-70
2022/05/30 05:28:44;;;;;;;6.07;1.52;;;13.00;99.90;;;;;;4962725;28;20096;-70
2022/05/30 05:31:14;;;;;;;4.43;1.40;;;12.80;99.90;;;;;;4995095;28;20055;-70
2022/05/30 05:33:40;;;;;;;7.78;2.38;;;12.50;99.90;;;;;;4963047;28;20054;-71
2022/05/30 05:36:06;;;;;;;5.00;1.50;;;12.40;99.90;;;;;;4979528;28;20039;-70
2022/05/30 05:38:31;;;;;;;6.55;1.65;;;12.30;99.90;;;;;;4946732;28;20126;-71
2022/05/30 05:41:00;;;;;;;7.47;1.50;;;12.10;99.90;;;;;;4963593;28;20050;-70
2022/05/30 05:43:26;;;;;;;3.58;1.30;;;12.10;99.90;;;;;;4959798;28;20042;-70
2022/05/30 05:45:51;;;;;;;7.25;1.40;;;11.80;99.90;;;;;;4948073;28;20373;-70
2022/05/30 05:48:17;;;;;;;4.32;1.55;;;11.60;99.90;;;;;;4963644;28;20117;-69
2022/05/30 05:50:43;;;;;;;3.97;1.10;;;11.50;99.90;;;;;;4962140;28;20054;-70
2022/05/30 05:53:11;;;;;;;6.43;1.30;;;11.40;99.90;;;;;;4961217;28;20057;-70
2022/05/30 05:55:37;;;;;;;3.22;1.02;;;11.30;99.90;;;;;;4940040;28;20192;-70
2022/05/30 05:58:04;;;;;;;8.85;1.30;;;11.60;99.90;;;;;;4960380;28;20071;-70
2022/05/30 06:00:31;;;;;;;3.30;1.02;;;11.70;99.90;;;;;;4960517;28;20054;-70
2022/05/30 06:02:58;;;;;;;3.63;1.10;;;11.70;99.90;;;;;;4958183;28;20126;-71
2022/05/30 06:05:23;;;;;;;4.90;0.98;;;11.70;99.90;;;;;;4957099;28;20512;-71
2022/05/30 06:07:49;;;;;;;7.53;1.27;;;11.80;99.90;;;;;;4942112;28;20102;-70
2022/05/30 06:10:15;;;;;;;6.45;1.65;;;11.80;99.90;;;;;;4944177;28;20500;-70
2022/05/30 06:12:45;;;;;;;3.65;0.95;;;11.70;99.90;;;;;;4961091;28;20065;-71
2022/05/30 06:15:14;;;;;;;3.67;1.10;;;11.80;99.90;;;;;;4962662;28;20061;-71
2022/05/30 06:17:40;;;;;;;6.13;1.20;;;11.90;99.90;;;;;;4979971;28;20141;-71
2022/05/30 06:20:07;;;;;;;6.50;1.25;;;12.10;99.90;;;;;;4962365;28;20126;-70
2022/05/30 06:22:33;;;;;;;5.75;1.20;;;12.20;99.90;;;;;;4967004;28;20051;-70
2022/05/30 06:24:59;;;;;;;7.40;1.50;;;12.30;99.90;;;;;;4965029;28;20058;-70
2022/05/30 06:27:24;;;;;;;4.82;1.15;;;12.30;99.90;;;;;;4967484;28;20053;-70
2022/05/30 06:29:51;;;;;;;4.63;1.00;;;12.20;99.90;;;;;;4965056;28;20489;-70
2022/05/30 06:32:17;;;;;;;7.38;1.20;;;12.30;99.90;;;;;;4967134;28;20054;-70
2022/05/30 06:34:43;;;;;;;3.30;1.00;;;12.50;99.90;;;;;;4966139;28;20065;-70
2022/05/30 06:37:10;;;;;;;3.50;1.15;;;12.60;99.90;;;;;;4965091;28;20050;-70
2022/05/30 06:39:37;;;;;;;5.68;1.15;;;12.60;99.90;;;;;;4967743;28;20094;-70
2022/05/30 06:42:07;;;;;;;4.32;1.13;;;12.70;99.90;;;;;;4966229;28;20112;-70
2022/05/30 06:44:35;;;;;;;5.63;1.13;;;12.80;99.90;;;;;;4966297;28;20162;-69
2022/05/30 06:47:02;;;;;;;2.88;0.90;;;12.90;99.90;;;;;;4967481;28;20126;-70
2022/05/30 06:49:28;;;;;;;5.15;1.10;;;13.10;99.90;;;;;;4967381;28;20062;-69
2022/05/30 06:51:53;;;;;;;3.85;1.10;;;13.10;99.90;;;;;;4965891;28;20050;-69
2022/05/30 06:54:20;;;;;;;4.70;1.65;;;13.10;99.90;;;;;;4966128;28;20034;-69
2022/05/30 06:59:31;;;;;;;4.10;1.25;;;13.20;99.90;;;;;;4964499;28;20057;-70
2022/05/30 07:01:59;;;;;;;3.95;0.80;;;13.00;99.90;;;;;;4949189;28;20105;-70
2022/05/30 07:04:25;;;;;;;4.40;0.77;;;12.80;99.90;;;;;;4961393;28;20067;-70
2022/05/30 07:06:51;;;;;;;4.32;1.25;;;12.60;99.90;;;;;;4941543;28;20679;-70
2022/05/30 07:09:17;;;;;;;5.05;1.00;;;12.50;99.90;;;;;;4942446;28;20058;-70
2022/05/30 07:11:43;;;;;;;6.35;1.00;;;12.40;99.90;;;;;;4941698;28;20050;-70
2022/05/30 07:14:12;;;;;;;3.30;0.85;;;12.30;99.90;;;;;;4959250;28;20133;-70
2022/05/30 07:16:39;;;;;;;3.65;1.00;;;12.40;99.90;;;;;;4955763;28;20081;-70
2022/05/30 07:19:07;;;;;;;3.78;0.80;;;12.40;99.90;;;;;;4956563;28;20054;-70
2022/05/30 07:21:33;;;;;;;4.18;1.00;;;12.50;99.90;;;;;;4971500;28;20058;-70
2022/05/30 07:23:59;;;;;;;2.47;0.82;;;12.70;99.90;;;;;;4962499;28;20047;-69
2022/05/30 07:26:24;;;;;;;3.33;0.95;;;12.80;99.90;;;;;;4962346;28;20045;-69
2022/05/30 07:28:51;;;;;;;3.42;0.90;;;13.00;99.90;;;;;;4964414;28;20447;-70
2022/05/30 07:31:19;;;;;;;5.85;0.90;;;13.10;99.90;;;;;;4965371;28;20423;-69
2022/05/30 07:33:48;;;;;;;4.20;0.73;;;13.20;99.90;;;;;;4963113;28;20452;-69
2022/05/30 07:36:18;;;;;;;5.28;0.93;;;13.30;99.90;;;;;;4965889;28;20078;-69
2022/05/30 07:38:44;;;;;;;4.90;0.85;;;13.40;99.90;;;;;;4965417;28;20074;-69
2022/05/30 07:41:10;;;;;;;5.32;1.02;;;13.50;99.90;;;;;;4965365;28;20537;-69
2022/05/30 07:43:36;;;;;;;4.20;0.88;;;13.40;99.90;;;;;;4964231;28;20111;-69
2022/05/30 07:46:04;;;;;;;2.40;0.70;;;13.30;99.90;;;;;;4950449;28;20050;-69
2022/05/30 07:48:30;;;;;;;4.00;0.90;;;13.30;99.90;;;;;;4963702;28;20512;-69
2022/05/30 07:50:57;;;;;;;2.20;0.80;;;13.20;99.90;;;;;;4964687;28;20046;-70
2022/05/30 07:53:23;;;;;;;6.35;1.00;;;13.30;99.90;;;;;;4964566;28;20607;-69
2022/05/30 07:55:48;;;;;;;5.35;1.08;;;13.70;99.90;;;;;;4966436;28;20069;-69
2022/05/30 07:58:14;;;;;;;2.75;0.70;;;14.10;99.90;;;;;;4965197;28;20050;-69
2022/05/30 08:00:40;;;;;;;6.13;0.80;;;14.60;99.90;;;;;;4964371;28;20043;-69
2022/05/30 08:03:06;;;;;;;4.15;0.90;;;15.30;99.90;;;;;;4964486;28;20054;-69
2022/05/30 08:05:33;;;;;;;3.92;0.90;;;15.90;99.90;;;;;;4963537;28;20046;-69
2022/05/30 08:07:58;;;;;;;1.73;0.50;;;16.20;99.90;;;;;;4964673;28;21166;-69
2022/05/30 08:10:24;;;;;;;1.17;0.50;;;15.90;99.90;;;;;;4945253;28;20042;-70
2022/05/30 08:12:50;;;;;;;1.90;0.43;;;15.40;99.90;;;;;;4974252;28;20058;-69
2022/05/30 08:15:16;;;;;;;1.95;0.47;;;14.70;99.90;;;;;;4974498;28;20875;-70
2022/05/30 08:17:42;;;;;;;1.10;0.30;;;14.10;99.90;;;;;;4944701;28;20050;-69
2022/05/30 08:20:12;;;;;;;1.52;0.40;;;13.70;99.90;;;;;;4960783;28;20482;-69
2022/05/30 08:22:38;;;;;;;2.80;0.50;;;13.20;99.90;;;;;;4960038;28;20146;-69
2022/05/30 08:25:08;;;;;;;2.25;0.38;;;12.80;99.90;;;;;;4943672;28;20047;-70
2022/05/30 08:27:34;;;;;;;3.30;0.50;;;12.60;99.90;;;;;;4961578;28;20038;-67
2022/05/30 08:30:00;;;;;;;3.60;0.50;;;12.50;99.90;;;;;;4959854;28;20341;-68
2022/05/30 08:32:37;;;;;;;1.63;0.40;;;12.40;99.90;;;;;;4957491;28;20061;-67
2022/05/30 08:35:05;;;;;;;1.55;0.35;;;12.40;99.90;;;;;;4956917;28;20512;-68
2022/05/30 08:37:37;;;;;;;3.75;0.70;;;12.40;99.90;;;;;;4959331;28;20057;-67
2022/05/30 08:42:55;;;;;;;2.45;0.52;;;12.60;99.90;;;;;;4959737;28;20054;-67
2022/05/30 08:45:23;;;;;;;2.13;0.93;;;12.70;99.90;;;;;;4957969;28;20125;-67
2022/05/30 08:47:55;;;;;;;4.15;1.10;;;12.70;99.90;;;;;;4973869;28;20559;-67
2022/05/30 08:50:35;;;;;;;3.70;0.75;;;12.80;99.90;;;;;;4960202;28;20049;-69
2022/05/30 08:53:35;;;;;;;6.97;0.88;;;12.80;99.90;;;;;;4960133;28;20061;-70
2022/05/30 08:56:31;;;;;;;4.03;0.80;;;12.80;99.90;;;;;;4976128;28;20055;-69
2022/05/30 08:59:20;;;;;;;3.47;0.63;;;12.80;99.90;;;;;;4959674;28;20509;-70
2022/05/30 09:02:09;;;;;;;4.85;0.90;;;12.80;99.90;;;;;;4961766;28;20328;-69
2022/05/30 09:04:43;;;;;;;5.70;1.20;;;12.90;99.90;;;;;;4957386;28;20597;-69
2022/05/30 09:07:22;;;;;;;3.47;0.75;;;13.00;99.90;;;;;;4961092;28;20042;-70
2022/05/30 09:10:07;;;;;;;5.18;0.80;;;13.10;99.90;;;;;;4957476;28;20055;-70
2022/05/30 09:12:59;;;;;;;3.92;0.90;;;13.20;99.90;;;;;;4958659;28;20508;-70
2022/05/30 09:15:34;;;;;;;5.70;1.00;;;13.20;99.90;;;;;;4979764;28;20038;-69
2022/05/30 09:18:00;;;;;;;3.72;1.00;;;13.50;99.90;;;;;;4963355;28;20038;-70
2022/05/30 09:20:28;;;;;;;5.38;0.80;;;13.60;99.90;;;;;;4963457;28;20046;-70
2022/05/30 09:22:53;;;;;;;3.85;0.80;;;13.70;99.90;;;;;;4979825;28;20055;-70
2022/05/30 09:28:13;;;;;;;5.55;0.90;;;13.90;99.90;;;;;;4961434;28;20138;-70
2022/05/30 09:30:48;;;;;;;7.10;1.00;;;14.00;99.90;;;;;;4962893;28;20063;-69
2022/05/30 09:33:38;;;;;;;4.35;0.93;;;14.20;99.90;;;;;;4959793;28;20074;-69
2022/05/30 09:36:21;;;;;;;2.63;0.60;;;14.30;99.90;;;;;;4944340;28;20186;-69
2022/05/30 09:39:14;;;;;;;2.97;0.82;;;14.50;99.90;;;;;;4963009;28;20042;-69
2022/05/30 09:41:39;;;;;;;2.50;0.60;;;14.70;99.90;;;;;;4961804;28;20039;-69
2022/05/30 09:44:29;;;;;;;2.50;0.70;;;14.90;99.90;;;;;;4960578;28;20105;-69
2022/05/30 09:47:13;;;;;;;2.95;0.98;;;15.00;99.90;;;;;;4959935;28;20133;-69
2022/05/30 09:50:10;;;;;;;1.75;0.60;;;15.40;99.90;;;;;;4957166;28;20534;-69
2022/05/30 09:52:38;;;;;;;2.47;0.77;;;15.90;99.90;;;;;;4964755;28;20436;-69
2022/05/30 09:55:36;;;;;;;3.75;0.70;;;16.50;99.90;;;;;;4966810;28;20714;-69
2022/05/30 09:58:04;;;;;;;2.05;0.68;;;16.70;99.90;;;;;;4962512;28;20078;-68
2022/05/30 10:00:30;;;;;;;3.33;1.00;;;16.50;99.90;;;;;;4945801;28;20043;-68
2022/05/30 10:03:07;;;;;;;4.30;1.40;;;16.20;99.90;;;;;;4961779;28;20050;-69
2022/05/30 10:05:35;;;;;;;2.97;0.70;;;15.80;99.90;;;;;;4963674;28;20051;-69
2022/05/30 10:08:03;;;;;;;5.35;0.75;;;15.30;99.90;;;;;;4963047;28;20224;-69
2022/05/30 10:10:36;;;;;;;2.95;0.80;;;14.90;99.90;;;;;;4965252;28;20150;-68
2022/05/30 10:13:05;;;;;;;3.30;0.77;;;14.60;99.90;;;;;;4998046;28;20542;-69
2022/05/30 10:15:35;;;;;;;3.60;0.85;;;14.20;99.90;;;;;;4978162;28;20700;-69
2022/05/30 10:18:13;;;;;;;4.53;0.80;;;13.80;99.90;;;;;;4968009;28;20057;-70
2022/05/30 10:21:00;;;;;;;5.15;1.10;;;13.40;99.90;;;;;;4966074;28;20157;-70
2022/05/30 10:29:47;;;;;;;6.70;1.10;;;12.70;99.90;;;;;;4965911;28;20043;-70
2022/05/30 10:32:22;;;;;;;2.80;0.90;;;12.70;99.90;;;;;;4950175;28;20045;-70
2022/05/30 10:35:14;;;;;;;5.03;0.98;;;12.60;99.90;;;;;;4967609;28;20650;-70
2022/05/30 10:37:56;;;;;;;4.68;1.00;;;12.60;99.90;;;;;;4949936;28;20050;-70
2022/05/30 10:40:27;;;;;;;3.83;0.77;;;12.50;99.90;;;;;;4964031;28;20050;-70
2022/05/30 10:42:55;;;;;;;;;;;12.50;99.90;;;;;;4967323;28;20065;-70
2022/05/30 10:45:31;;;;;;;4.47;0.90;;;12.50;99.90;;;;;;4961227;28;19998;-70
2022/05/30 10:47:58;;;;;;;3.95;0.93;;;12.40;99.90;;;;;;4966579;28;20050;-70
2022/05/30 10:50:46;;;;;;;4.40;0.80;;;12.30;99.90;;;;;;4948139;28;20043;-70
2022/05/30 10:53:27;;;;;;;4.53;0.90;;;12.30;99.90;;;;;;4964500;28;20046;-70
2022/05/30 10:55:57;;;;;;;4.13;0.70;;;12.20;99.90;;;;;;4965424;28;20463;-70
2022/05/30 10:58:34;;;;;;;1.98;0.70;;;12.20;99.90;;;;;;4965054;28;20089;-70
2022/05/30 11:01:12;;;;;;;2.92;0.70;;;12.20;99.90;;;;;;4968294;28;20547;-71
2022/05/30 11:03:47;;;;;;;4.07;0.88;;;12.30;99.90;;;;;;4965564;28;20058;-70
2022/05/30 11:06:30;;;;;;;4.35;0.70;;;12.40;99.90;;;;;;4949772;28;20042;-71
2022/05/30 11:08:58;;;;;;;2.95;0.85;;;12.40;99.90;;;;;;4969198;28;20133;-70
2022/05/30 11:11:42;;;;;;;3.90;0.80;;;12.40;99.90;;;;;;4950747;28;20042;-70
2022/05/30 11:14:08;;;;;;;2.70;0.73;;;12.30;99.90;;;;;;4968410;28;20080;-70
2022/05/30 11:16:43;;;;;;;3.10;0.90;;;12.30;99.90;;;;;;4949010;28;20067;-70
2022/05/30 11:19:17;;;;;;;3.65;0.90;;;12.40;99.90;;;;;;4967239;28;20109;-70
2022/05/30 11:22:21;;;;;;;2.95;0.80;;;12.60;99.90;;;;;;4965658;28;20074;-69
2022/05/30 11:24:52;;;;;;;3.92;1.10;;;12.70;99.90;;;;;;4966610;28;20511;-70
2022/05/30 11:27:36;;;;;;;3.53;1.00;;;13.00;99.90;;;;;;4965079;28;20051;-70
2022/05/30 11:30:14;;;;;;;4.22;1.20;;;13.20;99.90;;;;;;4964617;28;20513;-70
2022/05/30 11:33:01;;;;;;;3.28;0.93;;;13.50;99.90;;;;;;4964444;28;20866;-70
2022/05/30 11:35:48;;;;;;;5.18;1.00;;;14.00;99.90;;;;;;4965354;28;20466;-70
2022/05/30 11:38:46;;;;;;;2.67;1.02;;;14.10;99.90;;;;;;4966641;28;20530;-70
2022/05/30 11:41:12;;;;;;;2.55;0.90;;;14.10;99.90;;;;;;4948830;28;20404;-70
2022/05/30 11:44:39;;;;;;;2.13;0.73;;;14.00;99.90;;;;;;4967267;28;20046;-70
2022/05/30 11:47:29;;;;;;;3.88;0.98;;;13.90;99.90;;;;;;4933592;28;20046;-70
2022/05/30 11:50:11;;;;;;;3.15;0.82;;;13.80;99.90;;;;;;4965699;28;21050;-69
2022/05/30 11:53:03;;;;;;;4.82;1.08;;;13.60;99.90;;;;;;4966906;28;20101;-69
2022/05/30 11:55:58;;;;;;;3.08;0.90;;;13.50;99.90;;;;;;4940282;28;20073;-70
2022/05/30 11:58:46;;;;;;;2.38;0.55;;;13.30;99.90;;;;;;4956532;28;20423;-70
2022/05/30 12:01:12;;;;;;;3.97;0.90;;;13.20;99.90;;;;;;4963544;28;20042;-70
2022/05/30 12:03:56;;;;;;;2.22;0.85;;;13.00;99.90;;;;;;4964645;28;20116;-70
2022/05/30 12:06:49;;;;;;;1.92;0.70;;;13.00;99.90;;;;;;4962255;28;20043;-71
2022/05/30 12:09:29;;;;;;;4.32;0.70;;;12.90;99.90;;;;;;4961512;28;20105;-71
2022/05/30 12:12:17;;;;;;;2.20;0.70;;;13.00;99.90;;;;;;4976709;28;20467;-70
2022/05/30 12:15:10;;;;;;;1.25;0.50;;;12.90;99.90;;;;;;4957672;28;20184;-70
2022/05/30 12:24:05;;;;;;;2.75;0.85;;;13.00;99.90;;;;;;4962352;28;20053;-70
2022/05/30 12:27:08;;;;;;;1.92;0.80;;;13.10;99.90;;;;;;4963403;28;20121;-70
2022/05/30 12:29:39;;;;;;;3.22;0.90;;;13.20;99.90;;;;;;4964900;28;20420;-69
2022/05/30 12:32:23;;;;;;;3.35;0.90;;;13.20;99.90;;;;;;4946891;28;20173;-70
2022/05/30 12:34:58;;;;;;;3.45;0.80;;;13.30;99.90;;;;;;4950233;28;20499;-70
2022/05/30 12:37:46;;;;;;;2.47;0.85;;;13.30;99.90;;;;;;4964279;28;20137;-69
2022/05/30 12:40:28;;;;;;;2.78;1.00;;;13.40;99.90;;;;;;4966343;28;20465;-69
2022/05/30 12:43:19;;;;;;;2.70;0.85;;;13.40;99.90;;;;;;4963477;28;20385;-69
2022/05/30 12:45:50;;;;;;;2.83;0.65;;;13.40;99.90;;;;;;4994862;28;20051;-70
2022/05/30 12:48:24;;;;;;;6.13;0.98;;;13.50;99.90;;;;;;4967254;28;20048;-70
2022/05/30 12:50:49;;;;;;;3.63;1.10;;;13.50;99.90;;;;;;4965932;28;20051;-70
2022/05/30 12:53:16;;;;;;;3.15;0.90;;;13.60;99.90;;;;;;4966741;28;20110;-69
2022/05/30 12:55:46;;;;;;;2.30;0.80;;;13.70;99.90;;;;;;4963788;28;20063;-69
2022/05/30 12:58:25;;;;;;;4.20;0.60;;;13.80;99.90;;;;;;4945524;28;20051;-70
2022/05/30 13:01:10;;;;;;;3.33;0.70;;;13.70;99.90;;;;;;4976394;28;20042;-70
2022/05/30 13:03:39;;;;;;;3.10;0.80;;;13.80;99.90;;;;;;4957514;28;20540;-70
2022/05/30 13:06:21;;;;;;;2.45;0.70;;;14.10;99.90;;;;;;4965454;28;20075;-70
2022/05/30 13:09:14;;;;;;;2.78;0.75;;;14.60;99.90;;;;;;4961275;28;20070;-70
2022/05/30 13:11:51;;;;;;;3.72;1.02;;;14.70;99.90;;;;;;4980021;28;20058;-70
2022/05/30 13:14:39;;;;;;;2.97;0.70;;;14.60;99.90;;;;;;4960576;28;20058;-70
2022/05/30 13:17:23;;;;;;;3.75;0.90;;;14.70;99.90;;;;;;4966082;28;20066;-69
2022/05/30 13:19:58;;;;;;;3.88;0.90;;;14.60;99.90;;;;;;4963136;28;20097;-70
2022/05/30 13:22:34;;;;;;;3.83;0.90;;;14.40;99.90;;;;;;4962647;28;20053;-70
2022/05/30 13:25:00;;;;;;;2.80;0.80;;;14.30;99.90;;;;;;4964039;28;20522;-69
2022/05/30 13:27:28;;;;;;;3.80;1.00;;;14.30;99.90;;;;;;4964374;28;20050;-69
2022/05/30 13:29:54;;;;;;;3.33;0.70;;;14.30;99.90;;;;;;4963966;28;20535;-68
2022/05/30 13:32:22;;;;;;;3.08;0.73;;;14.30;99.90;;;;;;4961308;28;20058;-69
2022/05/30 13:34:54;;;;;;;2.33;1.10;;;14.20;99.90;;;;;;4957897;28;20055;-69
2022/05/30 13:37:30;;;;;;;2.70;0.98;;;14.00;99.90;;;;;;4951883;28;20046;-69
2022/05/30 13:40:06;;;;;;;3.40;0.90;;;13.90;99.90;;;;;;4971664;28;20047;-69
2022/05/30 13:42:45;;;;;;;5.45;1.15;;;13.90;99.90;;;;;;4958992;28;20055;-68